createdAt,value
2018-05-02T00:00:32.233Z,3.50
2018-05-02T00:01:38.202Z,3.42
2018-05-02T00:02:44.488Z,3.85
2018-05-02T00:03:50.861Z,3.83
2018-05-02T00:04:56.831Z,3.12
2018-05-02T00:06:03.071Z,3.42
2018-05-02T00:07:14.785Z,4.37
2018-05-02T00:08:23.055Z,3.50
2018-05-02T00:09:29.770Z,6.62
2018-05-02T00:10:35.308Z,3.65
2018-05-02T00:11:41.856Z,4.87
2018-05-02T00:12:48.195Z,3.12
2018-05-02T00:13:54.463Z,3.20
2018-05-02T00:15:00.703Z,4.50
2018-05-02T00:16:06.707Z,4.32
2018-05-02T00:17:13.038Z,4.10
2018-05-02T00:18:19.264Z,5.12
2018-05-02T00:19:26.174Z,4.28
2018-05-02T00:20:32.567Z,3.80
2018-05-02T00:21:38.775Z,3.37
2018-05-02T00:22:45.087Z,4.07
2018-05-02T00:23:51.345Z,4.45
2018-05-02T00:24:57.614Z,4.20
2018-05-02T00:26:03.940Z,4.37
2018-05-02T00:27:10.231Z,3.75
2018-05-02T00:28:16.515Z,5.03
2018-05-02T00:29:24.517Z,4.00
2018-05-02T00:30:30.688Z,3.47
2018-05-02T00:31:37.103Z,3.70
2018-05-02T00:32:44.627Z,5.57
2018-05-02T00:33:51.757Z,3.87
2018-05-02T00:34:58.243Z,4.87
2018-05-02T00:36:04.531Z,4.00
2018-05-02T00:37:10.879Z,4.45
2018-05-02T00:38:17.747Z,4.18
2018-05-02T00:39:23.971Z,3.87
2018-05-02T00:40:30.163Z,3.92
2018-05-02T00:41:42.315Z,3.75
2018-05-02T00:42:51.488Z,3.60
2018-05-02T00:43:57.720Z,4.55
2018-05-02T00:45:04.575Z,3.80
2018-05-02T00:46:10.839Z,4.28
2018-05-02T00:47:17.020Z,3.28
2018-05-02T00:48:23.986Z,4.80
2018-05-02T00:49:30.252Z,3.90
2018-05-02T00:50:36.163Z,3.58
2018-05-02T00:51:42.504Z,4.97
2018-05-02T00:52:48.702Z,4.15
2018-05-02T00:53:55.012Z,4.10
2018-05-02T00:55:01.250Z,5.75
2018-05-02T00:56:07.543Z,4.25
2018-05-02T00:57:13.747Z,5.07
2018-05-02T00:58:19.756Z,4.30
2018-05-02T00:59:26.291Z,3.85
2018-05-02T01:00:32.514Z,4.47
2018-05-02T01:01:37.646Z,4.10
2018-05-02T01:02:43.879Z,4.40
2018-05-02T01:03:49.802Z,3.67
2018-05-02T01:04:56.014Z,5.68
2018-05-02T01:06:02.283Z,5.25
2018-05-02T01:07:08.495Z,5.40
2018-05-02T01:08:15.682Z,4.97
2018-05-02T01:09:22.023Z,4.20
2018-05-02T01:10:28.283Z,4.90
2018-05-02T01:11:34.497Z,4.62
2018-05-02T01:12:41.265Z,4.25
2018-05-02T01:13:47.481Z,3.95
2018-05-02T01:14:53.742Z,4.32
2018-05-02T01:15:59.507Z,6.10
2018-05-02T01:17:05.718Z,4.15
2018-05-02T01:18:11.631Z,4.85
2018-05-02T01:19:18.519Z,3.03
2018-05-02T01:20:24.738Z,4.15
2018-05-02T01:21:30.973Z,4.05
2018-05-02T01:22:37.158Z,4.50
2018-05-02T01:23:43.054Z,3.90
2018-05-02T01:24:50.001Z,4.78
2018-05-02T01:25:56.221Z,4.22
2018-05-02T01:27:02.642Z,6.10
2018-05-02T01:28:08.866Z,4.50
2018-05-02T01:29:14.920Z,4.30
2018-05-02T01:30:21.268Z,4.35
2018-05-02T01:31:27.466Z,4.40
2018-05-02T01:32:33.439Z,5.75
2018-05-02T01:33:39.711Z,5.20
2018-05-02T01:34:46.031Z,4.95
2018-05-02T01:35:52.375Z,5.53
2018-05-02T01:36:58.692Z,7.50
2018-05-02T01:38:04.934Z,4.85
2018-05-02T01:39:11.141Z,5.43
2018-05-02T01:40:18.291Z,5.00
2018-05-02T01:41:24.474Z,4.95
2018-05-02T01:42:30.670Z,4.22
2018-05-02T01:43:36.924Z,4.25
2018-05-02T01:44:43.145Z,4.28
2018-05-02T01:45:49.066Z,4.80
2018-05-02T01:46:55.397Z,4.37
2018-05-02T01:48:01.675Z,4.97
2018-05-02T01:49:19.055Z,4.93
2018-05-02T01:50:25.019Z,4.07
2018-05-02T01:51:31.183Z,5.97
2018-05-02T01:52:37.432Z,4.72
2018-05-02T01:53:43.633Z,4.28
2018-05-02T01:54:49.869Z,6.68
2018-05-02T01:55:56.142Z,6.60
2018-05-02T01:57:02.500Z,4.90
2018-05-02T01:58:08.846Z,4.30
2018-05-02T01:59:15.132Z,4.05
2018-05-02T02:00:21.411Z,4.47
2018-05-02T02:01:27.957Z,4.87
2018-05-02T02:02:34.197Z,5.95
2018-05-02T02:03:40.446Z,3.92
2018-05-02T02:04:46.710Z,5.10
2018-05-02T02:05:52.663Z,5.50
2018-05-02T02:06:58.554Z,4.18
2018-05-02T02:08:05.637Z,3.80
2018-05-02T02:09:11.588Z,4.65
2018-05-02T02:10:17.903Z,6.03
2018-05-02T02:11:24.820Z,4.40
2018-05-02T02:12:31.039Z,4.37
2018-05-02T02:13:37.217Z,4.40
2018-05-02T02:14:43.229Z,5.18
2018-05-02T02:15:56.119Z,4.35
2018-05-02T02:17:02.322Z,4.15
2018-05-02T02:18:08.606Z,4.50
2018-05-02T02:19:14.457Z,5.35
2018-05-02T02:20:21.965Z,7.20
2018-05-02T02:21:28.110Z,4.90
2018-05-02T02:22:34.073Z,5.20
2018-05-02T02:23:40.269Z,4.60
2018-05-02T02:24:46.529Z,5.10
2018-05-02T02:25:53.014Z,4.55
2018-05-02T02:26:59.172Z,4.97
2018-05-02T02:28:05.071Z,4.32
2018-05-02T02:29:11.447Z,4.28
2018-05-02T02:30:17.693Z,5.05
2018-05-02T02:31:25.317Z,5.40
2018-05-02T02:32:31.757Z,5.55
2018-05-02T02:33:38.031Z,4.22
2018-05-02T02:34:43.881Z,4.65
2018-05-02T02:35:50.159Z,4.00
2018-05-02T02:37:02.430Z,5.40
2018-05-02T02:38:08.639Z,5.57
2018-05-02T02:39:14.953Z,5.43
2018-05-02T02:40:21.218Z,6.25
2018-05-02T02:41:27.446Z,5.05
2018-05-02T02:42:33.733Z,5.07
2018-05-02T02:43:39.938Z,4.40
2018-05-02T02:44:46.331Z,5.18
2018-05-02T02:45:52.603Z,4.53
2018-05-02T02:46:59.506Z,5.22
2018-05-02T02:48:05.855Z,4.87
2018-05-02T02:49:11.803Z,5.30
2018-05-02T02:50:18.094Z,5.57
2018-05-02T02:51:24.349Z,6.68
2018-05-02T02:52:30.649Z,4.97
2018-05-02T02:53:36.846Z,4.80
2018-05-02T02:54:42.907Z,6.40
2018-05-02T02:55:49.179Z,6.75
2018-05-02T02:56:55.368Z,6.62
2018-05-02T02:58:01.623Z,4.22
2018-05-02T02:59:07.930Z,8.05
2018-05-02T03:00:14.187Z,4.50
2018-05-02T03:01:20.515Z,5.62
2018-05-02T03:02:27.575Z,4.90
2018-05-02T03:03:34.474Z,6.57
2018-05-02T03:04:40.699Z,6.45
2018-05-02T03:05:47.493Z,5.47
2018-05-02T03:06:53.718Z,4.85
2018-05-02T03:08:00.053Z,4.75
2018-05-02T03:09:06.547Z,5.50
2018-05-02T03:10:12.801Z,4.53
2018-05-02T03:11:20.925Z,5.78
2018-05-02T03:12:27.095Z,5.97
2018-05-02T03:13:33.424Z,5.55
2018-05-02T03:14:40.248Z,5.57
2018-05-02T03:15:46.821Z,5.03
2018-05-02T03:16:52.992Z,4.60
2018-05-02T03:17:59.370Z,4.90
2018-05-02T03:19:11.294Z,4.62
2018-05-02T03:20:17.463Z,5.03
2018-05-02T03:21:23.659Z,4.55
2018-05-02T03:22:29.981Z,4.80
2018-05-02T03:23:36.151Z,4.45
2018-05-02T03:24:42.607Z,4.62
2018-05-02T03:25:48.947Z,5.18
2018-05-02T03:26:55.363Z,4.65
2018-05-02T03:28:01.865Z,4.75
2018-05-02T03:29:08.147Z,4.40
2018-05-02T03:30:15.874Z,4.70
2018-05-02T03:31:22.171Z,6.00
2018-05-02T03:32:28.432Z,4.97
2018-05-02T03:33:34.685Z,6.57
2018-05-02T03:34:41.675Z,6.10
2018-05-02T03:35:47.934Z,5.47
2018-05-02T03:36:54.184Z,5.12
2018-05-02T03:38:00.143Z,5.20
2018-05-02T03:39:05.655Z,5.62
2018-05-02T03:40:13.293Z,5.25
2018-05-02T03:41:19.584Z,4.97
2018-05-02T03:42:25.819Z,4.95
2018-05-02T03:43:32.218Z,4.10
2018-05-02T03:44:38.457Z,5.68
2018-05-02T03:45:44.682Z,4.75
2018-05-02T03:46:50.890Z,6.47
2018-05-02T03:47:56.916Z,6.65
2018-05-02T03:49:03.227Z,6.03
2018-05-02T03:50:09.255Z,6.53
2018-05-02T03:51:15.175Z,5.45
2018-05-02T03:52:21.374Z,8.00
2018-05-02T03:53:27.934Z,5.75
2018-05-02T03:54:34.774Z,5.62
2018-05-02T03:55:41.547Z,5.25
2018-05-02T03:56:47.776Z,6.60
2018-05-02T03:57:54.063Z,8.95
2018-05-02T03:59:00.331Z,6.55
2018-05-02T04:00:17.710Z,6.37
2018-05-02T04:01:34.741Z,10.85
2018-05-02T04:02:52.055Z,10.50
2018-05-02T04:04:10.133Z,11.80
2018-05-02T04:05:28.112Z,8.05
2018-05-02T04:06:48.141Z,6.75
2018-05-02T04:07:55.320Z,9.07
2018-05-02T04:09:03.016Z,7.93
2018-05-02T04:10:09.941Z,9.50
2018-05-02T04:11:17.784Z,6.62
2018-05-02T04:12:25.856Z,8.80
2018-05-02T04:13:32.153Z,11.23
2018-05-02T04:14:38.575Z,14.63
2018-05-02T04:15:45.876Z,8.73
2018-05-02T04:16:52.659Z,8.75
2018-05-02T04:17:58.957Z,7.65
2018-05-02T04:19:05.003Z,9.93
2018-05-02T04:20:12.346Z,8.35
2018-05-02T04:21:20.491Z,7.28
2018-05-02T04:22:27.627Z,6.87
2018-05-02T04:23:33.907Z,6.37
2018-05-02T04:24:40.129Z,6.22
2018-05-02T04:25:46.409Z,7.22
2018-05-02T04:26:52.639Z,7.55
2018-05-02T04:27:58.835Z,5.72
2018-05-02T04:29:05.075Z,7.00
2018-05-02T04:30:11.359Z,7.60
2018-05-02T04:31:17.763Z,8.18
2018-05-02T04:32:23.980Z,8.57
2018-05-02T04:33:30.162Z,6.85
2018-05-02T04:34:36.435Z,8.13
2018-05-02T04:36:23.970Z,9.48
2018-05-02T04:37:30.739Z,6.35
2018-05-02T04:38:36.963Z,7.78
2018-05-02T04:39:43.186Z,8.05
2018-05-02T04:40:49.375Z,6.90
2018-05-02T04:41:55.614Z,5.80
2018-05-02T04:43:02.390Z,5.65
2018-05-02T04:44:08.643Z,6.35
2018-05-02T04:45:15.420Z,7.12
2018-05-02T04:46:22.469Z,6.60
2018-05-02T04:47:29.464Z,8.10
2018-05-02T04:48:35.719Z,7.22
2018-05-02T04:49:42.044Z,8.40
2018-05-02T04:50:48.255Z,6.82
2018-05-02T04:51:54.440Z,7.12
2018-05-02T04:53:00.636Z,6.03
2018-05-02T04:54:06.537Z,6.40
2018-05-02T04:55:12.754Z,5.90
2018-05-02T04:56:18.965Z,8.73
2018-05-02T04:57:25.217Z,6.25
2018-05-02T04:58:32.076Z,6.25
2018-05-02T04:59:38.427Z,6.35
2018-05-02T05:00:45.484Z,8.02
2018-05-02T05:01:51.764Z,7.70
2018-05-02T05:02:58.006Z,11.05
2018-05-02T05:04:04.175Z,6.70
2018-05-02T05:05:10.431Z,7.28
2018-05-02T05:06:16.699Z,9.38
2018-05-02T05:07:23.051Z,6.32
2018-05-02T05:08:29.223Z,5.90
2018-05-02T05:09:35.450Z,6.85
2018-05-02T05:10:42.149Z,6.55
2018-05-02T05:11:48.423Z,6.85
2018-05-02T05:12:54.866Z,6.85
2018-05-02T05:14:01.182Z,7.40
2018-05-02T05:15:07.425Z,5.82
2018-05-02T05:16:13.951Z,6.10
2018-05-02T05:17:20.529Z,6.22
2018-05-02T05:18:26.912Z,7.87
2018-05-02T05:19:34.183Z,7.93
2018-05-02T05:20:41.133Z,6.37
2018-05-02T05:21:47.513Z,5.72
2018-05-02T05:22:54.172Z,5.90
2018-05-02T05:24:00.487Z,7.43
2018-05-02T05:25:06.706Z,6.62
2018-05-02T05:26:13.003Z,6.07
2018-05-02T05:27:19.775Z,6.68
2018-05-02T05:28:26.054Z,6.43
2018-05-02T05:29:32.591Z,6.30
2018-05-02T05:30:38.828Z,6.70
2018-05-02T05:31:45.046Z,5.47
2018-05-02T05:32:51.283Z,5.87
2018-05-02T05:33:57.510Z,7.60
2018-05-02T05:35:03.827Z,6.35
2018-05-02T05:36:10.095Z,5.75
2018-05-02T05:37:16.408Z,6.80
2018-05-02T05:38:23.386Z,5.65
2018-05-02T05:39:30.348Z,5.93
2018-05-02T05:40:36.664Z,5.85
2018-05-02T05:41:42.946Z,6.28
2018-05-02T05:42:49.361Z,5.97
2018-05-02T05:43:55.910Z,6.35
2018-05-02T05:45:02.669Z,6.07
2018-05-02T05:46:11.422Z,5.65
2018-05-02T05:47:17.582Z,6.25
2018-05-02T05:48:23.910Z,6.55
2018-05-02T05:49:30.170Z,6.15
2018-05-02T05:50:37.159Z,5.07
2018-05-02T05:51:43.394Z,6.50
2018-05-02T05:52:50.385Z,5.78
2018-05-02T05:53:57.432Z,6.97
2018-05-02T05:55:03.862Z,7.90
2018-05-02T05:56:09.761Z,8.15
2018-05-02T05:57:15.967Z,5.37
2018-05-02T05:58:22.208Z,5.03
2018-05-02T05:59:28.515Z,7.00
2018-05-02T06:00:34.787Z,8.55
2018-05-02T06:01:41.022Z,6.25
2018-05-02T06:02:48.011Z,5.93
2018-05-02T06:03:59.463Z,5.70
2018-05-02T06:05:05.771Z,7.25
2018-05-02T06:06:12.293Z,6.50
2018-05-02T06:07:18.487Z,6.07
2018-05-02T06:08:24.740Z,9.07
2018-05-02T06:09:31.440Z,5.80
2018-05-02T06:10:38.340Z,6.40
2018-05-02T06:11:44.568Z,8.95
2018-05-02T06:12:50.878Z,6.00
2018-05-02T06:13:57.302Z,7.28
2018-05-02T06:15:03.516Z,7.90
2018-05-02T06:16:09.531Z,6.95
2018-05-02T06:17:16.876Z,7.10
2018-05-02T06:18:23.571Z,7.07
2018-05-02T06:19:29.724Z,7.87
2018-05-02T06:20:36.003Z,6.90
2018-05-02T06:21:42.182Z,7.10
2018-05-02T06:22:48.643Z,7.07
2018-05-02T06:23:55.650Z,7.07
2018-05-02T06:25:01.615Z,6.97
2018-05-02T06:26:07.148Z,6.28
2018-05-02T06:27:13.740Z,8.63
2018-05-02T06:28:19.528Z,6.75
2018-05-02T06:29:26.510Z,6.20
2018-05-02T06:30:32.760Z,6.50
2018-05-02T06:31:39.095Z,5.70
2018-05-02T06:32:44.976Z,6.93
2018-05-02T06:33:51.228Z,6.03
2018-05-02T06:34:57.469Z,11.23
2018-05-02T06:36:03.733Z,6.72
2018-05-02T06:37:09.947Z,5.87
2018-05-02T06:38:16.715Z,6.55
2018-05-02T06:39:22.744Z,6.80
2018-05-02T06:40:28.987Z,6.62
2018-05-02T06:41:35.213Z,6.70
2018-05-02T06:42:42.143Z,5.75
2018-05-02T06:43:48.464Z,5.80
2018-05-02T06:44:54.761Z,8.57
2018-05-02T06:46:01.366Z,6.10
2018-05-02T06:47:07.766Z,6.15
2018-05-02T06:48:15.087Z,6.35
2018-05-02T06:49:22.199Z,6.72
2018-05-02T06:50:29.263Z,7.97
2018-05-02T06:51:35.456Z,6.12
2018-05-02T06:52:42.536Z,6.68
2018-05-02T06:53:48.897Z,6.45
2018-05-02T06:54:55.058Z,6.50
2018-05-02T06:56:05.992Z,6.53
2018-05-02T06:57:12.262Z,6.37
2018-05-02T06:58:18.469Z,7.37
2018-05-02T06:59:24.674Z,8.05
2018-05-02T07:00:30.870Z,6.20
2018-05-02T07:01:37.203Z,7.30
2018-05-02T07:02:43.548Z,8.20
2018-05-02T07:03:49.710Z,6.55
2018-05-02T07:04:55.963Z,6.20
2018-05-02T07:06:02.176Z,6.30
2018-05-02T07:07:08.525Z,6.93
2018-05-02T07:08:14.625Z,7.53
2018-05-02T07:09:20.883Z,5.65
2018-05-02T07:10:27.196Z,5.55
2018-05-02T07:11:33.498Z,5.95
2018-05-02T07:12:39.720Z,5.85
2018-05-02T07:13:45.908Z,5.12
2018-05-02T07:14:52.226Z,7.72
2018-05-02T07:15:58.431Z,5.97
2018-05-02T07:17:04.998Z,5.50
2018-05-02T07:18:11.755Z,5.68
2018-05-02T07:19:18.034Z,6.97
2018-05-02T07:20:24.297Z,6.05
2018-05-02T07:21:30.504Z,5.20
2018-05-02T07:22:36.816Z,5.90
2018-05-02T07:23:43.119Z,7.07
2018-05-02T07:24:49.009Z,5.50
2018-05-02T07:25:55.236Z,6.82
2018-05-02T07:27:01.455Z,5.70
2018-05-02T07:28:07.756Z,5.78
2018-05-02T07:29:13.988Z,6.97
2018-05-02T07:30:20.280Z,6.10
2018-05-02T07:31:26.471Z,5.43
2018-05-02T07:32:32.765Z,5.00
2018-05-02T07:33:39.109Z,4.68
2018-05-02T07:34:45.331Z,4.72
2018-05-02T07:35:51.557Z,4.85
2018-05-02T07:36:57.760Z,5.03
2018-05-02T07:38:03.626Z,5.00
2018-05-02T07:39:10.004Z,4.47
2018-05-02T07:40:16.293Z,4.68
2018-05-02T07:41:22.558Z,5.25
2018-05-02T07:42:28.780Z,4.28
2018-05-02T07:43:35.134Z,4.57
2018-05-02T07:44:41.445Z,6.07
2018-05-02T07:45:47.743Z,5.00
2018-05-02T07:46:54.063Z,4.07
2018-05-02T07:48:00.336Z,7.43
2018-05-02T07:49:06.580Z,4.25
2018-05-02T07:50:12.924Z,4.28
2018-05-02T07:51:19.207Z,4.53
2018-05-02T07:52:25.448Z,4.93
2018-05-02T07:53:33.190Z,4.00
2018-05-02T07:54:39.395Z,4.97
2018-05-02T07:55:45.643Z,4.70
2018-05-02T07:56:52.385Z,5.05
2018-05-02T07:57:58.281Z,5.72
2018-05-02T07:59:04.479Z,4.47
2018-05-02T08:00:10.380Z,7.97
2018-05-02T08:01:16.612Z,4.65
2018-05-02T08:02:22.828Z,4.40
2018-05-02T08:03:29.034Z,4.47
2018-05-02T08:04:35.267Z,4.68
2018-05-02T08:05:41.451Z,5.50
2018-05-02T08:06:47.607Z,5.80
2018-05-02T08:07:53.845Z,4.43
2018-05-02T08:09:00.763Z,5.97
2018-05-02T08:10:07.023Z,4.80
2018-05-02T08:11:13.420Z,4.95
2018-05-02T08:12:19.731Z,4.30
2018-05-02T08:13:25.946Z,4.70
2018-05-02T08:14:32.164Z,4.70
2018-05-02T08:15:38.666Z,4.20
2018-05-02T08:16:44.867Z,4.30
2018-05-02T08:17:51.083Z,4.55
2018-05-02T08:18:57.287Z,4.80
2018-05-02T08:20:03.532Z,8.30
2018-05-02T08:21:09.833Z,5.10
2018-05-02T08:22:15.793Z,5.25
2018-05-02T08:23:22.112Z,4.93
2018-05-02T08:24:28.324Z,4.90
2018-05-02T08:25:34.554Z,4.65
2018-05-02T08:26:40.742Z,6.15
2018-05-02T08:27:47.064Z,4.30
2018-05-02T08:28:53.280Z,4.87
2018-05-02T08:29:59.522Z,4.85
2018-05-02T08:31:05.388Z,4.40
2018-05-02T08:32:11.698Z,4.97
2018-05-02T08:33:17.910Z,5.45
2018-05-02T08:34:24.239Z,4.62
2018-05-02T08:35:30.582Z,4.80
2018-05-02T08:36:36.858Z,5.07
2018-05-02T08:37:43.622Z,4.57
2018-05-02T08:38:49.634Z,6.53
2018-05-02T08:39:55.781Z,4.10
2018-05-02T08:41:02.686Z,5.30
2018-05-02T08:42:08.901Z,5.50
2018-05-02T08:43:15.127Z,5.57
2018-05-02T08:44:21.347Z,4.40
2018-05-02T08:45:28.210Z,8.35
2018-05-02T08:46:34.834Z,4.57
2018-05-02T08:47:41.090Z,5.12
2018-05-02T08:48:47.614Z,5.00
2018-05-02T08:49:54.220Z,4.12
2018-05-02T08:51:00.747Z,4.22
2018-05-02T08:52:06.628Z,4.90
2018-05-02T08:53:12.855Z,5.12
2018-05-02T08:54:19.073Z,4.80
2018-05-02T08:55:25.303Z,4.43
2018-05-02T08:56:31.570Z,3.92
2018-05-02T08:57:37.809Z,3.70
2018-05-02T08:58:43.997Z,4.93
2018-05-02T08:59:50.243Z,4.10
2018-05-02T09:00:57.526Z,3.25
2018-05-02T09:02:04.246Z,4.35
2018-05-02T09:03:10.390Z,3.90
2018-05-02T09:04:16.790Z,4.12
2018-05-02T09:05:23.024Z,3.78
2018-05-02T09:06:29.346Z,4.10
2018-05-02T09:07:35.636Z,3.92
2018-05-02T09:08:41.840Z,4.50
2018-05-02T09:09:48.146Z,3.50
2018-05-02T09:10:55.268Z,3.60
2018-05-02T09:12:01.488Z,5.10
2018-05-02T09:13:07.690Z,4.12
2018-05-02T09:14:13.875Z,3.65
2018-05-02T09:15:21.716Z,4.28
2018-05-02T09:16:28.154Z,3.97
2018-05-02T09:17:35.146Z,4.15
2018-05-02T09:18:41.438Z,4.75
2018-05-02T09:19:47.595Z,4.45
2018-05-02T09:20:54.585Z,3.30
2018-05-02T09:22:00.919Z,4.05
2018-05-02T09:23:08.314Z,5.03
2018-05-02T09:24:15.485Z,3.95
2018-05-02T09:25:21.846Z,4.18
2018-05-02T09:26:28.093Z,3.85
2018-05-02T09:27:34.356Z,4.15
2018-05-02T09:28:40.576Z,4.22
2018-05-02T09:29:46.932Z,4.28
2018-05-02T09:30:53.233Z,3.05
2018-05-02T09:31:59.834Z,3.17
2018-05-02T09:33:06.101Z,3.62
2018-05-02T09:34:12.613Z,3.70
2018-05-02T09:35:18.978Z,4.57
2018-05-02T09:36:25.194Z,3.50
2018-05-02T09:37:31.493Z,3.37
2018-05-02T09:38:38.319Z,4.10
2018-05-02T09:39:45.472Z,3.67
2018-05-02T09:40:51.802Z,3.55
2018-05-02T09:41:58.171Z,4.15
2018-05-02T09:43:04.000Z,4.57
2018-05-02T09:44:10.317Z,3.30
2018-05-02T09:45:16.819Z,3.67
2018-05-02T09:46:22.760Z,3.92
2018-05-02T09:47:29.543Z,3.83
2018-05-02T09:48:35.811Z,3.58
2018-05-02T09:49:42.030Z,3.70
2018-05-02T09:50:48.263Z,3.70
2018-05-02T09:51:54.212Z,4.00
2018-05-02T09:53:01.331Z,3.75
2018-05-02T09:54:07.804Z,3.83
2018-05-02T09:55:13.999Z,3.40
2018-05-02T09:56:20.328Z,2.70
2018-05-02T09:57:29.973Z,2.95
2018-05-02T09:58:37.806Z,2.87
2018-05-02T09:59:44.089Z,3.17
2018-05-02T10:00:50.380Z,3.08
2018-05-02T10:01:56.627Z,3.70
2018-05-02T10:03:02.886Z,3.70
2018-05-02T10:04:09.205Z,3.90
2018-05-02T10:05:15.515Z,3.62
2018-05-02T10:06:21.739Z,3.10
2018-05-02T10:07:28.033Z,4.28
2018-05-02T10:08:35.715Z,3.03
2018-05-02T10:09:42.725Z,2.95
2018-05-02T10:10:49.015Z,3.05
2018-05-02T10:11:55.431Z,3.40
2018-05-02T10:13:01.630Z,3.70
2018-05-02T10:14:07.870Z,3.67
2018-05-02T10:15:14.201Z,2.95
2018-05-02T10:16:20.539Z,3.35
2018-05-02T10:17:26.796Z,5.62
2018-05-02T10:18:35.618Z,2.62
2018-05-02T10:19:47.767Z,2.70
2018-05-02T10:20:54.035Z,2.62
2018-05-02T10:22:00.322Z,2.20
2018-05-02T10:23:06.206Z,2.40
2018-05-02T10:24:13.204Z,1.85
2018-05-02T10:25:19.379Z,2.45
2018-05-02T10:26:24.787Z,2.72
2018-05-02T10:27:31.063Z,2.90
2018-05-02T10:28:37.291Z,3.22
2018-05-02T10:29:43.687Z,2.20
2018-05-02T10:30:49.919Z,2.37
2018-05-02T10:31:56.259Z,2.47
2018-05-02T10:33:02.538Z,2.85
2018-05-02T10:34:08.800Z,2.80
2018-05-02T10:35:14.959Z,3.65
2018-05-02T10:36:21.192Z,2.28
2018-05-02T10:37:27.499Z,3.50
2018-05-02T10:38:33.818Z,2.35
2018-05-02T10:39:40.776Z,2.60
2018-05-02T10:40:47.571Z,2.70
2018-05-02T10:41:53.866Z,3.53
2018-05-02T10:43:00.147Z,3.00
2018-05-02T10:44:06.341Z,3.25
2018-05-02T10:45:12.707Z,14.70
2018-05-02T10:46:19.063Z,3.67
2018-05-02T10:47:25.406Z,3.60
2018-05-02T10:48:31.602Z,3.42
2018-05-02T10:49:37.771Z,3.80
2018-05-02T10:50:44.016Z,3.35
2018-05-02T10:51:50.139Z,3.55
2018-05-02T10:52:56.372Z,3.28
2018-05-02T10:54:02.679Z,3.50
2018-05-02T10:55:08.975Z,3.22
2018-05-02T10:56:15.896Z,2.87
2018-05-02T10:57:22.122Z,3.35
2018-05-02T10:58:27.942Z,2.80
2018-05-02T10:59:34.252Z,3.78
2018-05-02T11:00:43.080Z,2.22
2018-05-02T11:01:54.011Z,2.37
2018-05-02T11:03:00.633Z,2.67
2018-05-02T11:04:06.913Z,2.65
2018-05-02T11:05:13.131Z,2.65
2018-05-02T11:06:19.895Z,2.40
2018-05-02T11:07:26.411Z,2.85
2018-05-02T11:08:32.709Z,2.80
2018-05-02T11:09:39.002Z,3.45
2018-05-02T11:10:45.216Z,2.83
2018-05-02T11:11:51.425Z,4.10
2018-05-02T11:12:57.654Z,2.80
2018-05-02T11:14:03.906Z,3.12
2018-05-02T11:15:10.183Z,3.00
2018-05-02T11:16:16.514Z,2.60
2018-05-02T11:17:22.791Z,3.28
2018-05-02T11:18:28.643Z,3.25
2018-05-02T11:19:35.351Z,2.80
2018-05-02T11:20:41.606Z,2.92
2018-05-02T11:21:52.761Z,3.78
2018-05-02T11:22:58.999Z,2.95
2018-05-02T11:24:05.268Z,2.87
2018-05-02T11:25:11.464Z,2.83
2018-05-02T11:26:17.696Z,2.72
2018-05-02T11:27:24.015Z,2.95
2018-05-02T11:28:30.387Z,2.55
2018-05-02T11:29:36.831Z,3.35
2018-05-02T11:30:43.037Z,2.60
2018-05-02T11:31:49.323Z,2.83
2018-05-02T11:32:55.661Z,2.70
2018-05-02T11:34:01.855Z,2.50
2018-05-02T11:35:08.063Z,2.30
2018-05-02T11:36:14.771Z,2.70
2018-05-02T11:37:21.024Z,2.50
2018-05-02T11:38:27.348Z,2.70
2018-05-02T11:39:33.629Z,3.42
2018-05-02T11:40:39.968Z,2.70
2018-05-02T11:41:46.761Z,2.37
2018-05-02T11:42:54.221Z,3.08
2018-05-02T11:44:00.400Z,2.50
2018-05-02T11:45:06.634Z,2.80
2018-05-02T11:46:12.890Z,2.70
2018-05-02T11:47:20.164Z,4.10
2018-05-02T11:48:26.388Z,2.62
2018-05-02T11:49:32.687Z,2.40
2018-05-02T11:50:38.901Z,3.15
2018-05-02T11:51:45.201Z,2.67
2018-05-02T11:52:51.435Z,2.50
2018-05-02T11:53:57.750Z,3.25
2018-05-02T11:55:03.706Z,2.55
2018-05-02T11:56:10.228Z,2.72
2018-05-02T11:57:23.771Z,5.18
2018-05-02T11:58:29.735Z,2.55
2018-05-02T11:59:36.072Z,2.72
2018-05-02T12:00:42.362Z,2.35
2018-05-02T12:01:48.567Z,3.00
2018-05-02T12:02:55.898Z,2.83
2018-05-02T12:04:01.796Z,4.47
2018-05-02T12:05:08.111Z,2.20
2018-05-02T12:06:14.653Z,3.95
2018-05-02T12:07:20.954Z,2.90
2018-05-02T12:08:27.279Z,2.45
2018-05-02T12:09:33.568Z,3.70
2018-05-02T12:10:40.511Z,3.60
2018-05-02T12:11:46.767Z,2.30
2018-05-02T12:12:53.289Z,2.55
2018-05-02T12:13:59.543Z,3.67
2018-05-02T12:15:05.844Z,2.55
2018-05-02T12:16:12.160Z,3.85
2018-05-02T12:17:18.683Z,2.22
2018-05-02T12:18:26.766Z,2.67
2018-05-02T12:19:33.649Z,2.70
2018-05-02T12:20:39.859Z,2.80
2018-05-02T12:21:46.203Z,2.72
2018-05-02T12:22:52.483Z,2.40
2018-05-02T12:23:58.929Z,2.47
2018-05-02T12:25:04.886Z,2.78
2018-05-02T12:26:11.132Z,2.62
2018-05-02T12:27:17.333Z,2.72
2018-05-02T12:28:23.544Z,3.12
2018-05-02T12:29:30.601Z,2.22
2018-05-02T12:30:37.358Z,2.65
2018-05-02T12:31:43.827Z,3.25
2018-05-02T12:32:50.194Z,2.15
2018-05-02T12:33:56.084Z,3.35
2018-05-02T12:35:03.152Z,2.30
2018-05-02T12:36:08.736Z,2.62
2018-05-02T12:37:14.965Z,2.37
2018-05-02T12:38:21.278Z,2.85
2018-05-02T12:39:27.583Z,2.80
2018-05-02T12:40:33.895Z,2.55
2018-05-02T12:41:40.126Z,3.00
2018-05-02T12:42:46.991Z,2.55
2018-05-02T12:43:54.010Z,3.05
2018-05-02T12:45:00.866Z,2.40
2018-05-02T12:46:07.122Z,4.50
2018-05-02T12:47:13.099Z,2.85
2018-05-02T12:48:19.404Z,2.47
2018-05-02T12:49:25.711Z,2.00
2018-05-02T12:50:31.909Z,3.17
2018-05-02T12:51:38.119Z,2.40
2018-05-02T12:52:44.339Z,2.42
2018-05-02T12:53:50.566Z,2.33
2018-05-02T12:54:57.975Z,2.40
2018-05-02T12:56:04.240Z,2.20
2018-05-02T12:57:10.607Z,2.28
2018-05-02T12:58:16.910Z,2.95
2018-05-02T12:59:23.246Z,2.22
2018-05-02T13:00:29.575Z,2.10
2018-05-02T13:01:36.078Z,2.10
2018-05-02T13:02:42.373Z,2.40
2018-05-02T13:03:48.575Z,2.70
2018-05-02T13:04:54.799Z,2.60
2018-05-02T13:06:01.914Z,2.33
2018-05-02T13:07:09.375Z,2.72
2018-05-02T13:08:15.669Z,2.55
2018-05-02T13:09:22.110Z,2.85
2018-05-02T13:10:29.031Z,2.80
2018-05-02T13:11:35.199Z,2.60
2018-05-02T13:12:41.516Z,2.87
2018-05-02T13:13:47.748Z,3.15
2018-05-02T13:14:53.964Z,2.50
2018-05-02T13:16:00.255Z,3.30
2018-05-02T13:17:06.515Z,3.00
2018-05-02T13:18:12.818Z,2.70
2018-05-02T13:19:19.115Z,2.72
2018-05-02T13:20:25.407Z,3.17
2018-05-02T13:21:31.681Z,3.15
2018-05-02T13:22:37.925Z,3.10
2018-05-02T13:23:44.178Z,3.83
2018-05-02T13:24:50.464Z,2.28
2018-05-02T13:25:57.436Z,2.90
2018-05-02T13:27:05.063Z,2.70
2018-05-02T13:28:11.416Z,3.03
2018-05-02T13:29:18.544Z,2.42
2018-05-02T13:30:24.803Z,4.62
2018-05-02T13:31:30.973Z,3.30
2018-05-02T13:32:37.245Z,2.97
2018-05-02T13:33:43.645Z,3.20
2018-05-02T13:34:49.959Z,3.00
2018-05-02T13:35:56.206Z,2.92
2018-05-02T13:37:02.510Z,2.90
2018-05-02T13:38:08.762Z,2.45
2018-05-02T13:39:15.053Z,3.17
2018-05-02T13:40:21.299Z,2.50
2018-05-02T13:41:27.738Z,2.60
2018-05-02T13:42:34.814Z,2.60
2018-05-02T13:43:40.999Z,2.85
2018-05-02T13:44:47.263Z,2.97
2018-05-02T13:45:53.231Z,2.72
2018-05-02T13:46:59.471Z,2.83
2018-05-02T13:48:05.173Z,3.72
2018-05-02T13:49:18.594Z,2.92
2018-05-02T13:50:25.006Z,2.60
2018-05-02T13:51:32.008Z,3.47
2018-05-02T13:52:38.260Z,3.05
2018-05-02T13:53:44.615Z,3.15
2018-05-02T13:54:50.939Z,3.10
2018-05-02T13:55:57.200Z,2.58
2018-05-02T13:57:03.421Z,2.72
2018-05-02T13:58:10.550Z,3.20
2018-05-02T13:59:16.787Z,2.97
2018-05-02T14:00:22.810Z,3.55
2018-05-02T14:01:29.074Z,3.20
2018-05-02T14:02:35.463Z,3.10
2018-05-02T14:03:42.616Z,2.70
2018-05-02T14:04:48.842Z,3.72
2018-05-02T14:05:56.108Z,3.25
2018-05-02T14:07:02.383Z,3.20
2018-05-02T14:08:08.322Z,3.47
2018-05-02T14:09:14.831Z,3.65
2018-05-02T14:10:21.763Z,2.65
2018-05-02T14:11:28.646Z,2.58
2018-05-02T14:12:34.883Z,2.40
2018-05-02T14:13:41.184Z,2.97
2018-05-02T14:14:47.740Z,3.25
2018-05-02T14:15:54.052Z,3.45
2018-05-02T14:17:00.263Z,2.70
2018-05-02T14:18:06.513Z,2.60
2018-05-02T14:19:12.781Z,2.70
2018-05-02T14:20:19.260Z,4.12
2018-05-02T14:21:25.486Z,2.58
2018-05-02T14:22:31.767Z,2.30
2018-05-02T14:23:37.971Z,2.53
2018-05-02T14:24:44.281Z,2.53
2018-05-02T14:25:50.742Z,2.87
2018-05-02T14:26:56.996Z,2.45
2018-05-02T14:28:03.338Z,2.95
2018-05-02T14:29:09.655Z,2.40
2018-05-02T14:30:16.123Z,5.50
2018-05-02T14:31:24.083Z,2.53
2018-05-02T14:32:31.256Z,3.40
2018-05-02T14:33:37.822Z,3.05
2018-05-02T14:34:44.178Z,2.30
2018-05-02T14:35:50.513Z,2.03
2018-05-02T14:36:56.787Z,2.08
2018-05-02T14:38:03.145Z,3.53
2018-05-02T14:39:09.395Z,3.35
2018-05-02T14:40:15.622Z,3.15
2018-05-02T14:41:21.876Z,2.05
2018-05-02T14:42:29.818Z,2.78
2018-05-02T14:43:37.227Z,2.53
2018-05-02T14:44:44.482Z,2.37
2018-05-02T14:45:50.902Z,2.17
2018-05-02T14:46:57.293Z,2.22